Time;durP1;ratioP1;P1;durP2;ratioP2;P2;SDS_P1;SDS_P2;PMS_P1;PMS_P2;Temp;Humidity;BMP_temperature;BMP_pressure;BME280_temperature;BME280_humidity;BME280_pressure;Samples;Min_cycle;Max_cycle;Signal;HPM_P1;HPM_P2
2023/08/25 00:00:39;;;;;;;6.87;5.33;;;;;;;24.42;66.97;99865.97;6296941;28;20427;-71
2023/08/25 00:03:40;;;;;;;7.35;4.80;;;;;;;24.40;67.56;99866.19;6294569;28;20054;-70
2023/08/25 00:06:41;;;;;;;7.53;5.20;;;;;;;24.39;67.24;99869.03;6297379;28;20041;-70
2023/08/25 00:09:44;;;;;;;6.17;4.83;;;;;;;24.29;67.24;99877.31;6298139;28;20068;-70
2023/08/25 00:12:46;;;;;;;7.25;4.68;;;;;;;24.25;66.82;99879.53;6296745;28;20102;-69
2023/08/25 00:15:48;;;;;;;;;;;;;;;24.14;67.17;99878.16;6296834;28;20114;-70
2023/08/25 00:18:49;;;;;;;9.65;4.57;;;;;;;24.14;67.71;99877.34;6296701;28;19921;-70
2023/08/25 00:21:50;;;;;;;6.87;4.93;;;;;;;24.20;67.70;99870.44;6293414;28;20053;-70
2023/08/25 00:24:52;;;;;;;7.27;4.93;;;;;;;24.20;66.98;99870.44;6297810;28;20059;-70
2023/08/25 00:27:53;;;;;;;8.00;5.35;;;;;;;24.19;66.67;99885.59;6293185;28;20139;-70
2023/08/25 00:30:54;;;;;;;7.67;4.87;;;;;;;24.06;67.34;99877.44;6288250;28;20119;-71
2023/08/25 00:33:55;;;;;;;7.07;4.67;;;;;;;24.07;67.06;99889.75;6296568;28;20056;-70
2023/08/25 00:36:56;;;;;;;7.30;4.70;;;;;;;23.96;67.35;99890.22;6295642;28;20537;-70
2023/08/25 00:39:56;;;;;;;7.47;5.10;;;;;;;23.89;67.75;99901.63;6295199;28;20044;-70
2023/08/25 00:42:57;;;;;;;9.93;4.87;;;;;;;23.92;68.07;99903.91;6296572;28;20105;-70
2023/08/25 00:45:59;;;;;;;6.87;5.20;;;;;;;23.92;68.19;99903.09;6294481;28;20423;-71
2023/08/25 00:49:02;;;;;;;;;;;;;;;23.82;68.99;99914.00;6294062;28;20048;-69
2023/08/25 00:52:04;;;;;;;9.30;4.82;;;;;;;23.81;68.52;99911.56;6295863;28;19920;-71
2023/08/25 00:55:06;;;;;;;7.60;5.00;;;;;;;23.80;68.21;99924.03;6296608;28;20052;-71
2023/08/25 00:58:07;;;;;;;7.32;5.22;;;;;;;23.73;68.34;99926.56;6292218;28;20085;-71
2023/08/25 01:01:08;;;;;;;;;;;;;;;23.74;68.40;99927.38;6296142;28;20397;-69
2023/08/25 01:04:09;;;;;;;6.15;4.32;;;;;;;23.66;69.53;99928.31;6294865;28;19928;-69
2023/08/25 01:07:12;;;;;;;9.90;4.83;;;;;;;23.62;68.89;99931.53;6312149;28;20507;-70
2023/08/25 01:10:14;;;;;;;6.95;5.03;;;;;;;23.58;68.59;99930.25;6293871;28;20052;-69
2023/08/25 01:13:22;;;;;;;9.35;5.00;;;;;;;23.55;68.51;99920.75;6294643;28;20048;-70
2023/08/25 01:16:29;;;;;;;10.07;5.40;;;;;;;23.55;68.47;99928.75;6292683;28;20052;-70
2023/08/25 01:20:08;;;;;;;7.43;4.63;;;;;;;23.46;68.77;99930.66;6296014;28;20045;-69
2023/08/25 01:23:30;;;;;;;8.23;5.60;;;;;;;23.45;68.77;99921.03;6301116;28;20049;-70
2023/08/25 01:26:34;;;;;;;9.60;5.35;;;;;;;23.37;69.15;99934.41;6292230;28;20059;-71
2023/08/25 01:29:41;;;;;;;9.32;5.45;;;;;;;23.36;68.62;99938.06;6295904;28;20044;-71
2023/08/25 01:32:41;;;;;;;8.45;5.50;;;;;;;23.31;69.40;99933.28;6296602;28;20158;-69
2023/08/25 01:35:50;;;;;;;6.23;5.07;;;;;;;23.31;69.37;99937.78;6294763;28;20044;-70
2023/08/25 01:39:00;;;;;;;9.13;5.65;;;;;;;23.31;69.05;99930.63;6290348;28;20473;-69
2023/08/25 01:42:04;;;;;;;11.50;5.60;;;;;;;23.35;69.12;99936.44;6285348;28;20525;-70
2023/08/25 01:45:06;;;;;;;6.03;4.70;;;;;;;23.29;69.02;99937.16;6283474;28;20093;-70
2023/08/25 01:48:09;;;;;;;8.50;5.28;;;;;;;23.29;68.47;99929.97;6301823;28;20076;-70
2023/08/25 01:51:11;;;;;;;7.85;6.28;;;;;;;23.28;68.05;99930.16;6301081;28;20131;-69
2023/08/25 01:54:13;;;;;;;7.80;5.78;;;;;;;23.24;67.39;99936.84;6300657;28;20059;-70
2023/08/25 01:57:14;;;;;;;7.72;5.07;;;;;;;23.31;68.38;99938.63;6297619;28;20086;-70
2023/08/25 02:00:15;;;;;;;7.57;5.23;;;;;;;23.26;68.45;99940.97;6297318;28;20059;-70
2023/08/25 02:03:17;;;;;;;7.33;5.37;;;;;;;23.26;68.22;99940.16;6299563;28;20394;-69
2023/08/25 02:06:18;;;;;;;6.72;5.40;;;;;;;23.22;67.62;99942.34;6291486;28;20463;-69
2023/08/25 02:09:19;;;;;;;7.80;5.47;;;;;;;23.25;68.14;99934.00;6300490;28;20134;-69
2023/08/25 02:12:19;;;;;;;12.57;4.63;;;;;;;;;;6295379;28;20158;-69
2023/08/25 02:15:20;;;;;;;7.53;5.17;;;;;;;23.18;68.58;99922.41;6297902;28;20059;-71
2023/08/25 02:18:21;;;;;;;7.03;5.17;;;;;;;23.21;67.54;99923.91;6298133;28;20118;-70
2023/08/25 02:21:22;;;;;;;7.20;5.20;;;;;;;;;;6291918;28;20055;-70
2023/08/25 02:24:22;;;;;;;9.73;5.87;;;;;;;23.04;69.06;99904.56;6306254;28;20058;-70
2023/08/25 02:27:23;;;;;;;9.77;6.20;;;;;;;23.06;68.61;99898.06;6321858;28;20490;-70
2023/08/25 02:30:24;;;;;;;9.10;5.90;;;;;;;23.02;68.79;99896.78;6297216;28;20503;-69
2023/08/25 02:33:25;;;;;;;7.90;5.57;;;;;;;23.08;68.36;99896.06;6300251;28;20106;-69
2023/08/25 02:36:26;;;;;;;8.50;5.87;;;;;;;22.95;68.96;99895.78;6296525;28;20136;-69
2023/08/25 02:39:29;;;;;;;10.07;5.83;;;;;;;22.93;68.95;99895.13;6300738;28;20052;-70
2023/08/25 02:42:29;;;;;;;8.30;5.70;;;;;;;22.83;69.41;99895.34;6292625;28;20396;-70
2023/08/25 02:45:34;;;;;;;8.60;5.77;;;;;;;22.78;69.76;99876.47;6296667;28;20057;-69
2023/08/25 02:48:37;;;;;;;10.05;6.20;;;;;;;22.82;69.88;99871.63;6297749;28;20052;-69
2023/08/25 02:51:38;;;;;;;7.90;5.32;;;;;;;22.85;69.80;99863.28;6298183;28;20049;-70
2023/08/25 02:54:38;;;;;;;10.30;5.90;;;;;;;22.78;69.62;99859.69;6287212;28;20048;-70
2023/08/25 02:57:39;;;;;;;7.63;5.27;;;;;;;22.71;70.15;99867.53;6295994;28;20507;-70
2023/08/25 03:00:40;;;;;;;8.63;5.57;;;;;;;22.71;69.77;99862.19;6298122;28;20109;-70
2023/08/25 03:03:41;;;;;;;9.80;6.20;;;;;;;22.73;69.33;99857.53;6296506;28;20052;-70
2023/08/25 03:06:42;;;;;;;9.87;6.30;;;;;;;22.71;69.58;99857.72;6286028;28;20049;-69
2023/08/25 03:09:42;;;;;;;7.57;6.03;;;;;;;22.65;70.61;99862.91;6277542;28;20049;-69
2023/08/25 03:12:43;;;;;;;6.57;4.93;;;;;;;22.69;69.71;99865.06;6298576;28;20591;-70
2023/08/25 03:15:44;;;;;;;8.37;5.43;;;;;;;22.63;70.13;99870.22;6285536;28;20057;-71
2023/08/25 03:18:44;;;;;;;6.73;5.47;;;;;;;22.59;70.38;99869.78;6282241;28;20041;-69
2023/08/25 03:21:48;;;;;;;10.23;5.90;;;;;;;22.58;70.35;99883.25;6283338;28;20048;-70
2023/08/25 03:24:49;;;;;;;9.55;6.15;;;;;;;22.57;70.73;99885.09;6287746;28;20056;-70
2023/08/25 03:27:50;;;;;;;8.20;5.73;;;;;;;22.53;70.63;99886.44;6295510;28;20048;-70
2023/08/25 03:30:51;;;;;;;10.00;5.80;;;;;;;22.45;71.16;99889.13;6297823;28;20123;-70
2023/08/25 03:33:52;;;;;;;8.05;5.43;;;;;;;22.44;71.44;99884.81;6297607;28;20541;-70
2023/08/25 03:36:53;;;;;;;9.43;5.20;;;;;;;22.34;70.95;99879.72;6287600;28;20049;-69
2023/08/25 03:39:54;;;;;;;8.87;5.40;;;;;;;22.32;71.37;99885.22;6305746;28;20131;-70
2023/08/25 03:42:54;;;;;;;12.00;5.37;;;;;;;22.31;71.39;99880.88;6298917;28;20090;-71
2023/08/25 03:45:55;;;;;;;9.37;5.97;;;;;;;22.30;71.42;99883.75;6288830;28;20055;-69
2023/08/25 03:48:57;;;;;;;10.03;5.30;;;;;;;22.28;71.70;99878.59;6293947;28;20457;-70
2023/08/25 03:51:58;;;;;;;7.28;5.18;;;;;;;22.26;72.00;99874.47;6297344;28;20044;-69
2023/08/25 03:54:59;;;;;;;7.47;5.60;;;;;;;22.29;72.06;99884.72;6296635;28;20408;-70
2023/08/25 03:57:59;;;;;;;8.65;5.63;;;;;;;22.39;71.32;99889.84;6296761;28;20045;-71
2023/08/25 04:01:00;;;;;;;10.27;5.30;;;;;;;22.41;71.07;99880.69;6296466;28;20059;-70
2023/08/25 04:04:02;;;;;;;9.73;5.63;;;;;;;22.40;71.71;99880.84;6293043;28;20044;-70
2023/08/25 04:07:03;;;;;;;7.50;5.30;;;;;;;22.36;71.72;99888.34;6297856;28;20056;-70
2023/08/25 04:10:03;;;;;;;8.63;5.13;;;;;;;22.38;71.52;99888.16;6287719;28;20088;-71
2023/08/25 04:13:04;;;;;;;7.53;4.97;;;;;;;22.36;71.73;99888.34;6288839;28;20101;-69
2023/08/25 04:16:05;;;;;;;8.33;5.97;;;;;;;22.39;71.64;99895.16;6289355;28;20048;-70
2023/08/25 04:19:06;;;;;;;8.37;5.63;;;;;;;22.46;71.77;99896.91;6286279;28;20053;-70
2023/08/25 04:22:07;;;;;;;15.67;5.37;;;;;;;22.46;71.59;99878.31;6279927;28;20135;-71
2023/08/25 04:25:08;;;;;;;11.97;5.50;;;;;;;22.51;71.67;99899.06;6289069;28;20492;-70
2023/08/25 04:28:09;;;;;;;8.10;5.40;;;;;;;22.55;70.95;99895.06;6289250;28;20048;-69
2023/08/25 04:31:10;;;;;;;11.63;5.68;;;;;;;22.57;71.32;99900.19;6286955;28;20131;-70
2023/08/25 04:34:11;;;;;;;10.70;5.90;;;;;;;22.60;71.62;99889.22;6284475;28;20522;-69
2023/08/25 04:37:12;;;;;;;13.98;5.97;;;;;;;22.50;71.65;99895.56;6272890;28;20049;-69
2023/08/25 04:40:19;;;;;;;9.53;5.47;;;;;;;22.62;71.87;99892.53;6300568;28;20048;-69
2023/08/25 04:43:20;;;;;;;8.18;5.45;;;;;;;22.72;71.98;99901.09;6288001;28;20057;-70
2023/08/25 04:46:20;;;;;;;6.67;5.27;;;;;;;22.74;71.50;99897.25;6295497;28;20056;-69
2023/08/25 04:49:23;;;;;;;6.88;5.38;;;;;;;22.78;72.12;99892.41;6286766;28;20135;-69
2023/08/25 04:52:24;;;;;;;6.30;5.18;;;;;;;22.78;71.60;99892.41;6296312;28;20384;-70
2023/08/25 04:55:25;;;;;;;6.90;5.27;;;;;;;22.90;71.27;99916.78;6291397;28;20052;-70
2023/08/25 04:58:25;;;;;;;7.63;5.40;;;;;;;22.85;71.86;99941.22;6292812;28;20048;-69
2023/08/25 05:01:26;;;;;;;9.03;5.60;;;;;;;23.03;71.41;99943.66;6286857;28;20056;-70
2023/08/25 05:04:27;;;;;;;7.67;5.70;;;;;;;23.12;70.79;99952.38;6280659;28;20048;-69
2023/08/25 05:07:28;;;;;;;7.33;5.60;;;;;;;23.19;70.74;99966.66;6280373;28;20124;-70
2023/08/25 05:10:30;;;;;;;8.90;5.67;;;;;;;23.32;71.03;99971.38;6276337;28;20535;-70
2023/08/25 05:13:31;;;;;;;8.25;5.57;;;;;;;23.34;70.27;99980.00;6285691;28;20087;-70
2023/08/25 05:16:32;;;;;;;13.90;6.13;;;;;;;23.52;70.61;99980.53;6283122;28;20379;-70
2023/08/25 05:19:33;;;;;;;6.27;4.97;;;;;;;23.70;70.47;99985.53;6284588;28;20412;-71
2023/08/25 05:22:33;;;;;;;7.10;4.97;;;;;;;23.82;69.46;99993.09;6292956;28;20049;-70
2023/08/25 05:25:34;;;;;;;7.20;5.53;;;;;;;23.97;69.57;99990.47;6296815;28;20052;-70
2023/08/25 05:28:35;;;;;;;7.53;5.83;;;;;;;24.02;68.84;99990.75;6295319;28;20075;-70
2023/08/25 05:31:35;;;;;;;8.13;5.67;;;;;;;24.25;68.13;99978.16;6295517;28;20052;-70
2023/08/25 05:34:36;;;;;;;8.50;5.73;;;;;;;24.37;67.48;99977.69;6295362;28;20045;-70
2023/08/25 05:37:37;;;;;;;7.20;5.30;;;;;;;24.51;67.46;99974.22;6295228;28;20098;-71
2023/08/25 05:40:38;;;;;;;13.07;5.67;;;;;;;24.59;66.80;99971.44;6295342;28;20456;-69
2023/08/25 05:43:38;;;;;;;8.37;5.77;;;;;;;24.68;66.85;99964.16;6296319;28;20048;-70
2023/08/25 05:46:43;;;;;;;8.87;5.67;;;;;;;24.82;66.99;99962.47;6296048;28;20044;-70
2023/08/25 05:49:44;;;;;;;9.43;5.35;;;;;;;24.94;67.63;99963.63;6294937;28;20123;-71
2023/08/25 05:52:47;;;;;;;8.77;5.90;;;;;;;25.08;67.11;99959.22;6295209;28;20130;-70
2023/08/25 05:55:50;;;;;;;10.80;4.97;;;;;;;25.21;68.00;99969.28;6294962;28;20399;-70
2023/08/25 05:58:53;;;;;;;10.43;5.80;;;;;;;25.41;67.25;99967.59;6295062;28;20049;-70
2023/08/25 06:01:54;;;;;;;7.95;5.95;;;;;;;25.48;65.59;99962.31;6293882;28;20516;-71
2023/08/25 06:04:54;;;;;;;8.47;5.20;;;;;;;25.61;65.47;99954.38;6294106;28;20056;-71
2023/08/25 06:07:55;;;;;;;11.13;5.60;;;;;;;25.74;65.46;99948.34;6294094;28;20129;-70
2023/08/25 06:10:56;;;;;;;7.33;5.87;;;;;;;25.91;66.90;99944.34;6293978;28;20048;-71
2023/08/25 06:13:57;;;;;;;8.68;6.10;;;;;;;26.04;64.82;99946.28;6295050;28;20106;-71
2023/08/25 06:17:01;;;;;;;8.00;5.30;;;;;;;26.42;63.99;99939.66;6293713;28;20136;-70
2023/08/25 06:20:03;;;;;;;12.52;5.25;;;;;;;26.42;63.79;99929.81;6295575;28;20420;-70
2023/08/25 06:23:04;;;;;;;7.78;5.18;;;;;;;26.69;63.98;99935.28;6294429;28;20059;-70
2023/08/25 06:26:06;;;;;;;7.97;5.33;;;;;;;26.93;63.49;99925.84;6294319;28;20143;-71
2023/08/25 06:29:06;;;;;;;7.97;5.55;;;;;;;27.21;62.82;99922.97;6294213;28;20194;-70
2023/08/25 06:32:10;;;;;;;9.63;5.43;;;;;;;27.33;62.38;99921.38;6294825;28;20052;-70
2023/08/25 06:35:14;;;;;;;10.35;5.57;;;;;;;27.56;61.00;99917.44;6298755;28;20060;-71
2023/08/25 06:38:15;;;;;;;8.57;5.30;;;;;;;27.72;59.38;99900.91;6300026;28;20052;-70
2023/08/25 06:41:15;;;;;;;6.10;4.87;;;;;;;27.72;58.88;99902.78;6298603;28;20055;-71
2023/08/25 06:44:16;;;;;;;14.50;5.70;;;;;;;27.59;57.38;99897.44;6298488;28;20549;-70
2023/08/25 06:47:17;;;;;;;7.77;5.03;;;;;;;27.91;58.20;99903.78;6299752;28;20044;-70
2023/08/25 06:50:17;;;;;;;8.33;4.67;;;;;;;28.15;57.55;99913.00;6298459;28;20052;-70
2023/08/25 06:53:19;;;;;;;7.77;4.17;;;;;;;28.34;55.59;99901.34;6299645;28;20055;-72
2023/08/25 06:56:20;;;;;;;6.95;5.00;;;;;;;28.70;56.65;99915.22;6299445;28;20052;-70
2023/08/25 06:59:22;;;;;;;6.78;4.82;;;;;;;28.88;53.37;99912.63;6299586;28;20053;-70
2023/08/25 07:02:23;;;;;;;7.88;4.55;;;;;;;29.07;55.97;99916.22;6298185;28;20090;-72
2023/08/25 07:05:25;;;;;;;9.52;5.40;;;;;;;29.31;54.38;99919.16;6298027;28;20061;-72
2023/08/25 07:08:26;;;;;;;40.40;21.00;;;;;;;29.13;52.88;99922.59;6298030;28;20049;-72
2023/08/25 07:11:27;;;;;;;9.05;5.43;;;;;;;29.55;51.82;99930.94;6298173;28;20059;-70
2023/08/25 07:14:30;;;;;;;6.83;4.57;;;;;;;29.67;51.35;99925.66;6299055;28;20044;-70
2023/08/25 07:17:31;;;;;;;9.55;4.95;;;;;;;29.82;52.31;99906.53;6298845;28;20076;-70
2023/08/25 07:20:32;;;;;;;6.88;4.80;;;;;;;29.57;55.34;99909.19;6297894;28;20067;-72
2023/08/25 07:23:33;;;;;;;5.88;4.22;;;;;;;29.79;52.61;99898.88;6297703;28;20053;-72
2023/08/25 07:26:34;;;;;;;9.38;5.10;;;;;;;29.92;51.48;99891.50;6299049;28;20044;-70
2023/08/25 07:29:35;;;;;;;6.83;4.33;;;;;;;30.19;53.22;99882.28;6298780;28;20114;-72
2023/08/25 07:32:36;;;;;;;11.50;4.50;;;;;;;30.16;52.35;99885.41;6297432;28;20052;-70
2023/08/25 07:35:38;;;;;;;7.80;4.23;;;;;;;29.70;54.59;99877.66;6298509;28;20507;-72
2023/08/25 07:38:38;;;;;;;;;;;;;;;29.57;52.37;99879.63;6298893;28;20785;-70
2023/08/25 07:41:41;;;;;;;7.83;4.33;;;;;;;29.81;52.24;99881.47;6297441;28;19920;-70
2023/08/25 07:44:42;;;;;;;7.03;4.72;;;;;;;29.87;53.30;99879.75;6297793;28;20123;-72
2023/08/25 07:47:46;;;;;;;6.53;4.47;;;;;;;29.86;52.29;99883.50;6298431;28;20045;-71
2023/08/25 07:50:47;;;;;;;10.15;4.60;;;;;;;30.12;51.84;99883.19;6296916;28;20381;-72
2023/08/25 07:53:47;;;;;;;7.35;4.50;;;;;;;30.03;50.31;99892.59;6297111;28;20063;-71
2023/08/25 07:56:48;;;;;;;5.43;4.20;;;;;;;30.27;52.95;99879.25;6297860;28;20060;-71
2023/08/25 07:59:51;;;;;;;5.95;4.35;;;;;;;30.22;51.20;99889.91;6296776;28;20052;-72
2023/08/25 08:02:52;;;;;;;5.63;4.10;;;;;;;30.18;50.27;99892.22;6297911;28;20094;-71
2023/08/25 08:05:55;;;;;;;5.97;4.30;;;;;;;30.24;50.08;99885.13;6297850;28;20056;-71
2023/08/25 08:08:56;;;;;;;8.80;4.90;;;;;;;30.26;48.89;99883.00;6291353;28;20047;-72
2023/08/25 08:11:58;;;;;;;11.57;4.63;;;;;;;30.60;51.48;99886.09;6272520;28;20053;-72
2023/08/25 08:14:58;;;;;;;9.38;4.43;;;;;;;31.35;50.47;99882.03;6272427;28;20136;-70
2023/08/25 08:17:59;;;;;;;6.13;4.47;;;;;;;31.57;50.00;99876.88;6271893;28;20414;-70
2023/08/25 08:21:00;;;;;;;7.20;3.72;;;;;;;31.81;46.73;99870.41;6272866;28;20053;-70
2023/08/25 08:24:02;;;;;;;7.13;4.10;;;;;;;32.05;48.45;99868.50;6271379;28;20060;-70
2023/08/25 08:27:03;;;;;;;5.85;3.53;;;;;;;32.21;44.61;99858.84;6271142;28;20451;-72
2023/08/25 08:30:04;;;;;;;5.43;3.45;;;;;;;32.12;42.95;99850.31;6272424;28;20053;-70
2023/08/25 08:33:06;;;;;;;5.30;3.67;;;;;;;32.19;44.87;99860.94;6271147;28;20417;-70
2023/08/25 08:36:07;;;;;;;4.93;3.20;;;;;;;31.90;44.22;99865.47;6272323;28;20056;-70
2023/08/25 08:39:12;;;;;;;5.78;3.58;;;;;;;32.04;44.11;99852.53;6270932;28;20485;-72
2023/08/25 08:42:14;;;;;;;9.45;4.07;;;;;;;31.40;43.88;99856.03;6272250;28;20055;-71
2023/08/25 08:45:17;;;;;;;5.65;4.13;;;;;;;31.41;44.35;99854.16;6272013;28;20048;-71
2023/08/25 08:48:20;;;;;;;8.00;4.03;;;;;;;31.94;43.90;99858.53;6270994;28;20102;-71
2023/08/25 08:51:23;;;;;;;12.02;3.95;;;;;;;32.61;45.42;99849.84;6270760;28;20555;-72
2023/08/25 08:54:25;;;;;;;9.63;4.20;;;;;;;32.45;42.53;99856.00;6271785;28;20053;-72
2023/08/25 08:57:27;;;;;;;6.97;3.55;;;;;;;32.13;40.60;99856.50;6270228;28;20045;-72
2023/08/25 09:00:28;;;;;;;8.73;3.58;;;;;;;31.82;42.14;99847.78;6270952;28;20052;-71
2023/08/25 09:03:34;;;;;;;9.13;3.40;;;;;;;31.87;42.24;99847.88;6271844;28;20049;-70
2023/08/25 09:06:37;;;;;;;6.25;3.50;;;;;;;31.78;42.42;99845.81;6270548;28;20053;-70
2023/08/25 09:09:40;;;;;;;6.97;3.40;;;;;;;31.97;40.12;99849.16;6271733;28;20053;-72
2023/08/25 09:12:40;;;;;;;7.07;3.40;;;;;;;32.46;39.91;99855.78;6271743;28;20052;-70
2023/08/25 09:15:43;;;;;;;4.22;3.05;;;;;;;33.17;38.95;99860.75;6270367;28;20056;-70
2023/08/25 09:18:46;;;;;;;7.13;3.30;;;;;;;33.41;37.91;99866.00;6271859;28;20045;-72
2023/08/25 09:21:47;;;;;;;7.88;3.60;;;;;;;33.37;38.30;99862.97;6270405;28;20055;-72
2023/08/25 09:24:47;;;;;;;7.13;3.78;;;;;;;33.39;37.07;99850.00;6270287;28;20049;-70
2023/08/25 09:27:55;;;;;;;9.20;3.75;;;;;;;33.57;39.27;99854.31;6270336;28;20067;-70
2023/08/25 09:30:56;;;;;;;13.00;3.70;;;;;;;34.26;37.57;99853.81;6270132;28;20578;-70
2023/08/25 09:34:05;;;;;;;6.68;4.32;;;;;;;34.55;35.62;99855.47;6270436;28;20136;-70
2023/08/25 09:37:07;;;;;;;10.77;3.85;;;;;;;34.82;37.27;99861.69;6270125;28;20049;-70
2023/08/25 09:40:17;;;;;;;10.68;4.65;;;;;;;34.41;37.64;99852.34;6271485;28;20053;-70
2023/08/25 09:43:30;;;;;;;7.32;4.10;;;;;;;33.88;37.11;99846.63;6271108;28;20497;-70
2023/08/25 09:46:32;;;;;;;5.63;4.18;;;;;;;33.46;37.83;99845.25;6271396;28;20159;-70
2023/08/25 09:49:42;;;;;;;5.68;4.00;;;;;;;33.46;39.19;99842.56;6270017;28;20102;-70
2023/08/25 09:52:47;;;;;;;8.75;3.92;;;;;;;33.30;39.84;99838.00;6282263;28;20487;-72
2023/08/25 09:55:54;;;;;;;5.30;4.00;;;;;;;33.20;39.65;99843.25;6287794;28;20055;-70
2023/08/25 09:58:55;;;;;;;6.18;4.10;;;;;;;33.24;39.67;99841.69;6294618;28;20126;-72
2023/08/25 10:01:57;;;;;;;4.93;3.25;;;;;;;33.04;39.46;99842.16;6294486;28;20389;-72
2023/08/25 10:04:58;;;;;;;5.53;3.45;;;;;;;33.49;38.72;99835.81;6294983;28;20052;-72
2023/08/25 10:08:02;;;;;;;6.40;3.42;;;;;;;33.63;37.93;99839.00;6299332;28;20102;-72
2023/08/25 10:11:03;;;;;;;6.63;3.65;;;;;;;33.58;38.09;99837.00;6300903;28;20055;-70
2023/08/25 10:14:07;;;;;;;3.85;3.10;;;;;;;33.70;38.54;99828.81;6299416;28;20059;-70
2023/08/25 10:17:11;;;;;;;9.40;3.40;;;;;;;33.37;38.10;99833.22;6296849;28;20123;-70
2023/08/25 10:20:15;;;;;;;5.15;3.47;;;;;;;33.58;38.47;99833.50;6299592;28;20472;-72
2023/08/25 10:23:18;;;;;;;6.97;3.75;;;;;;;34.15;38.31;99829.63;6296928;28;20512;-72
2023/08/25 10:26:19;;;;;;;7.72;3.58;;;;;;;34.31;36.04;99832.22;6301732;28;20132;-72
2023/08/25 10:29:24;;;;;;;11.23;4.20;;;;;;;35.01;36.09;99836.91;6299302;28;20048;-70
2023/08/25 10:32:55;;;;;;;5.07;3.72;;;;;;;34.71;36.76;99841.00;6298860;28;20114;-71
2023/08/25 10:35:56;;;;;;;6.65;3.67;;;;;;;34.31;36.94;99834.13;6302105;28;20083;-70
2023/08/25 10:38:59;;;;;;;;;;;;;;;34.21;36.00;99832.13;6294949;28;20049;-70
2023/08/25 10:42:01;;;;;;;6.03;3.50;;;;;;;34.37;36.31;99835.81;6288335;28;19932;-72
2023/08/25 10:45:06;;;;;;;9.05;3.83;;;;;;;34.88;36.81;99836.28;6298883;28;20557;-70
2023/08/25 10:48:06;;;;;;;4.68;3.40;;;;;;;35.16;34.81;99842.44;6300003;28;20041;-70
2023/08/25 10:51:10;;;;;;;;;;;;;;;34.95;33.65;99833.34;6299165;28;20087;-72
2023/08/25 10:54:20;;;;;;;4.88;3.15;;;;;;;35.70;33.94;99817.78;6298450;28;19920;-72
2023/08/25 10:57:41;;;;;;;7.15;3.28;;;;;;;36.04;33.14;99802.97;6299563;28;20491;-72
2023/08/25 11:00:46;;;;;;;;;;;;;;;35.51;33.45;99814.69;6294921;28;20837;-70
2023/08/25 11:04:06;;;;;;;4.80;3.35;;;;;;;36.02;34.93;99803.25;6297882;28;19920;-72
2023/08/25 11:07:06;;;;;;;7.60;3.53;;;;;;;36.02;32.48;99803.25;6299666;28;20051;-72
2023/08/25 11:10:13;;;;;;;;;;;;;;;35.43;35.01;99808.97;6297932;28;20052;-72
2023/08/25 11:13:15;;;;;;;4.20;3.17;;;;;;;36.15;33.58;99807.34;6298108;28;19920;-70
2023/08/25 11:16:16;;;;;;;7.47;3.58;;;;;;;36.38;33.90;99800.59;6290267;28;20447;-70
2023/08/25 11:19:17;;;;;;;;;;;;;;;36.30;33.59;99795.69;6295390;28;20098;-70
2023/08/25 11:22:18;;;;;;;5.88;3.78;;;;;;;36.29;32.85;99800.31;6298055;28;19968;-71
2023/08/25 11:25:21;;;;;;;11.30;3.97;;;;;;;36.89;32.93;99789.72;6298961;28;20487;-72
2023/08/25 11:28:27;;;;;;;5.03;3.40;;;;;;;37.09;32.82;99788.88;6297927;28;20094;-72
2023/08/25 11:31:28;;;;;;;5.15;3.42;;;;;;;36.87;32.55;99785.66;6299018;28;20099;-71
2023/08/25 11:34:30;;;;;;;10.40;3.50;;;;;;;37.35;32.17;99794.25;6297636;28;20455;-72
2023/08/25 11:37:31;;;;;;;6.15;3.88;;;;;;;37.42;32.70;99792.06;6299026;28;20052;-72
2023/08/25 11:40:32;;;;;;;6.57;3.20;;;;;;;37.55;31.67;99785.19;6296981;28;20106;-72
2023/08/25 11:43:36;;;;;;;4.97;3.50;;;;;;;37.80;31.83;99794.38;6297026;28;20056;-70
2023/08/25 11:46:37;;;;;;;7.10;3.80;;;;;;;37.27;32.03;99789.38;6297512;28;20087;-70
2023/08/25 11:49:42;;;;;;;7.13;3.67;;;;;;;37.22;32.22;99781.25;6297266;28;20513;-72
2023/08/25 11:52:42;;;;;;;8.05;3.30;;;;;;;37.17;33.77;99775.81;6290181;28;20049;-71
2023/08/25 11:55:58;;;;;;;7.53;3.50;;;;;;;37.15;31.85;99773.41;6284116;28;20049;-72
2023/08/25 11:59:00;;;;;;;3.80;3.10;;;;;;;37.00;30.60;99768.75;6281693;28;20484;-69
2023/08/25 12:02:02;;;;;;;4.55;2.90;;;;;;;37.08;30.38;99753.78;6294849;28;20060;-71
2023/08/25 12:05:06;;;;;;;3.80;2.80;;;;;;;36.74;30.53;99751.72;6273101;28;20065;-69
2023/08/25 12:08:07;;;;;;;14.75;3.58;;;;;;;36.74;30.23;99759.06;6288656;28;20045;-69
2023/08/25 12:11:10;;;;;;;15.85;3.35;;;;;;;36.91;30.30;99748.69;6277734;28;20053;-70
2023/08/25 12:14:23;;;;;;;14.77;4.45;;;;;;;37.38;30.85;99757.53;6282307;28;20060;-70
2023/08/25 12:17:28;;;;;;;7.45;2.83;;;;;;;37.67;30.55;99761.22;6280469;28;20485;-69
2023/08/25 12:20:31;;;;;;;8.80;3.20;;;;;;;37.43;29.13;99758.31;6275343;28;20045;-71
2023/08/25 12:23:40;;;;;;;5.72;3.00;;;;;;;37.35;28.83;99752.63;6286571;28;20492;-69
2023/08/25 12:26:41;;;;;;;8.40;3.00;;;;;;;37.21;28.78;99755.13;6296328;28;20514;-71
2023/08/25 12:29:41;;;;;;;4.03;2.83;;;;;;;37.37;28.68;99751.25;6296155;28;20049;-69
2023/08/25 12:32:43;;;;;;;9.07;2.95;;;;;;;37.60;28.77;99741.69;6296245;28;20059;-71
2023/08/25 12:35:43;;;;;;;10.55;2.78;;;;;;;37.48;29.30;99752.06;6295767;28;20687;-71
2023/08/25 12:38:46;;;;;;;9.90;3.08;;;;;;;37.55;29.68;99752.53;6313115;28;20041;-71
2023/08/25 12:41:47;;;;;;;8.73;3.40;;;;;;;37.63;29.58;99743.03;6289362;28;20390;-71
2023/08/25 12:44:53;;;;;;;7.93;3.17;;;;;;;36.92;30.12;99739.41;6279644;28;20083;-69
2023/08/25 12:47:54;;;;;;;10.27;3.03;;;;;;;36.70;31.75;99737.03;6286858;28;20485;-69
2023/08/25 12:50:57;;;;;;;7.13;2.95;;;;;;;36.99;32.12;99729.09;6285011;28;20044;-70
2023/08/25 12:53:58;;;;;;;9.68;3.40;;;;;;;37.20;31.69;99729.84;6283193;28;20526;-69
2023/08/25 12:56:59;;;;;;;11.40;3.50;;;;;;;37.03;30.44;99727.44;6291958;28;20058;-71
2023/08/25 13:00:02;;;;;;;6.55;3.17;;;;;;;36.87;31.14;99723.94;6291172;28;20048;-71
2023/08/25 13:03:05;;;;;;;5.32;2.78;;;;;;;37.11;30.26;99726.09;6295882;28;20052;-71
2023/08/25 13:06:07;;;;;;;4.90;3.33;;;;;;;37.39;31.72;99716.44;6291040;28;20532;-69
2023/08/25 13:09:07;;;;;;;6.53;3.30;;;;;;;37.28;31.45;99715.66;6274002;28;20412;-69
2023/08/25 13:12:09;;;;;;;5.65;3.53;;;;;;;36.80;30.93;99718.00;6288829;28;20052;-72
2023/08/25 13:15:14;;;;;;;12.18;3.92;;;;;;;37.02;29.73;99712.19;6289673;28;20056;-70
2023/08/25 13:18:17;;;;;;;6.03;3.03;;;;;;;37.35;31.49;99709.91;6287576;28;20044;-69
2023/08/25 13:21:17;;;;;;;8.07;3.70;;;;;;;37.26;30.69;99711.59;6290132;28;20071;-70
2023/08/25 13:24:18;;;;;;;17.63;3.80;;;;;;;36.90;31.28;99706.25;6295370;28;20052;-69
2023/08/25 13:27:21;;;;;;;12.02;3.40;;;;;;;36.69;30.44;99697.34;6296743;28;20044;-72
2023/08/25 13:30:22;;;;;;;8.50;3.55;;;;;;;36.74;31.45;99704.69;6296397;28;20504;-70
2023/08/25 13:33:24;;;;;;;15.52;3.45;;;;;;;36.64;31.96;99698.19;6296658;28;20061;-72
2023/08/25 13:36:25;;;;;;;21.13;3.60;;;;;;;36.69;31.93;99700.06;6296410;28;20109;-72
2023/08/25 13:39:25;;;;;;;13.90;3.60;;;;;;;36.65;31.28;99696.28;6296020;28;20476;-72
2023/08/25 13:42:26;;;;;;;9.57;2.83;;;;;;;36.49;31.77;99682.69;6297827;28;20057;-69
2023/08/25 13:45:27;;;;;;;17.88;3.47;;;;;;;36.65;32.06;99683.53;6300535;28;20084;-71
2023/08/25 13:48:27;;;;;;;9.70;3.65;;;;;;;36.67;31.83;99684.06;6301349;28;20094;-71
2023/08/25 13:51:28;;;;;;;12.90;3.00;;;;;;;36.67;34.01;99672.34;6300109;28;20416;-72
2023/08/25 13:54:29;;;;;;;4.40;2.65;;;;;;;36.28;32.86;99670.22;6299708;28;20136;-70
2023/08/25 13:57:30;;;;;;;7.97;3.28;;;;;;;36.63;34.73;99676.72;6300851;28;20077;-69
2023/08/25 14:00:31;;;;;;;7.40;3.00;;;;;;;36.94;32.72;99666.56;6301266;28;20061;-72
2023/08/25 14:03:32;;;;;;;7.35;2.97;;;;;;;36.79;31.49;99678.31;6300964;28;20113;-69
2023/08/25 14:06:33;;;;;;;8.63;2.88;;;;;;;36.73;31.33;99670.44;6297221;28;20060;-69
2023/08/25 14:09:34;;;;;;;4.25;2.83;;;;;;;36.79;32.29;99666.63;6298456;28;20079;-70
2023/08/25 14:12:38;;;;;;;5.55;2.78;;;;;;;36.46;32.09;99656.06;6298840;28;20081;-70
2023/08/25 14:15:39;;;;;;;3.70;2.58;;;;;;;36.53;32.17;99658.53;6298968;28;20056;-72
2023/08/25 14:18:39;;;;;;;17.95;3.28;;;;;;;36.26;32.66;99667.81;6297885;28;20047;-70